Time;durP1;ratioP1;P1;durP2;ratioP2;P2;SDS_P1;SDS_P2;PMS_P1;PMS_P2;Temp;Humidity;BMP_temperature;BMP_pressure;BME280_temperature;BME280_humidity;BME280_pressure;Samples;Min_cycle;Max_cycle;Signal;HPM_P1;HPM_P2
2021/12/18 00:01:58;;;;;;;9.23;5.50;;;;;;;;;;5048391;28;20036;-62
2021/12/18 00:04:24;;;;;;;10.18;5.03;;;;;;;;;;5041846;28;20701;-61
2021/12/18 00:06:49;;;;;;;9.75;5.57;;;;;;;;;;5044545;28;20056;-60
2021/12/18 00:09:15;;;;;;;10.90;5.63;;;;;;;;;;5041215;28;20044;-60
2021/12/18 00:11:41;;;;;;;13.05;5.57;;;;;;;;;;5045120;28;20080;-62
2021/12/18 00:14:06;;;;;;;11.95;5.57;;;;;;;;;;5047535;28;20017;-58
2021/12/18 00:16:32;;;;;;;12.25;5.32;;;;;;;;;;5091237;22;20134;-55
2021/12/18 00:18:58;;;;;;;8.68;5.43;;;;;;;;;;5080953;28;20531;-56
2021/12/18 00:21:25;;;;;;;9.73;5.75;;;;;;;;;;5080727;28;21950;-56
2021/12/18 00:23:51;;;;;;;11.35;5.57;;;;;;;;;;5065853;28;20016;-53
2021/12/18 00:26:18;;;;;;;7.72;5.32;;;;;;;;;;5084616;28;20055;-55
2021/12/18 00:28:44;;;;;;;11.27;5.70;;;;;;;;;;5082138;28;20123;-54
2021/12/18 00:31:09;;;;;;;9.93;5.50;;;;;;;;;;5081677;28;21094;-55
2021/12/18 00:33:35;;;;;;;9.50;5.28;;;;;;;;;;5082983;28;20042;-53
2021/12/18 00:36:00;;;;;;;9.77;5.50;;;;;;;;;;5083405;28;20075;-55
2021/12/18 00:44:31;;;;;;;10.02;5.32;;;;;;;;;;5081697;28;20034;-56
2021/12/18 00:46:56;;;;;;;11.15;5.47;;;;;;;;;;5067003;28;20491;-55
2021/12/18 00:49:23;;;;;;;10.32;5.63;;;;;;;;;;5084445;28;20024;-55
2021/12/18 00:51:48;;;;;;;9.07;5.53;;;;;;;;;;5083718;28;20043;-54
2021/12/18 00:54:14;;;;;;;10.43;5.25;;;;;;;;;;5081921;28;20024;-57
2021/12/18 00:56:40;;;;;;;10.43;5.13;;;;;;;;;;5080825;28;20110;-56
2021/12/18 00:59:05;;;;;;;9.93;5.55;;;;;;;;;;5081716;28;20144;-53
2021/12/18 01:01:32;;;;;;;9.07;4.93;;;;;;;;;;5080908;28;20130;-57
2021/12/18 01:03:58;;;;;;;9.30;5.30;;;;;;;;;;5083168;28;20607;-55
2021/12/18 01:06:24;;;;;;;9.18;5.40;;;;;;;;;;5083312;28;20046;-54
2021/12/18 01:08:53;;;;;;;7.68;5.05;;;;;;;;;;5083937;28;20475;-55
2021/12/18 01:11:41;;;;;;;9.68;5.88;;;;;;;;;;5080864;28;20127;-56
2021/12/18 01:25:05;;;;;;;9.23;5.35;;;;;;;;;;5082480;28;20043;-54
2021/12/18 01:27:31;;;;;;;9.30;5.18;;;;;;;;;;5085187;28;20485;-52
2021/12/18 01:29:56;;;;;;;8.75;5.07;;;;;;;;;;5082551;28;20047;-52
2021/12/18 01:32:23;;;;;;;10.40;5.45;;;;;;;;;;5080859;28;20036;-54
2021/12/18 01:34:48;;;;;;;10.13;4.90;;;;;;;;;;5081445;28;20039;-53
2021/12/18 01:37:15;;;;;;;8.18;4.70;;;;;;;;;;5079733;28;20458;-54
2021/12/18 01:39:41;;;;;;;8.13;4.78;;;;;;;;;;5082386;28;20028;-59
2021/12/18 01:52:53;;;;;;;9.70;4.78;;;;;;;;;;5087254;28;20097;-56
2021/12/18 01:55:30;;;;;;;8.80;4.80;;;;;;;;;;5086262;28;20059;-54
2021/12/18 01:57:56;;;;;;;8.90;4.93;;;;;;;;;;5084726;28;20063;-53
2021/12/18 02:00:25;;;;;;;6.20;3.92;;;;;;;;;;5086115;28;20047;-57
2021/12/18 02:02:51;;;;;;;7.47;4.13;;;;;;;;;;5085466;28;20032;-54
2021/12/18 02:05:17;;;;;;;7.88;4.63;;;;;;;;;;5087806;28;20085;-53
2021/12/18 02:07:42;;;;;;;8.13;4.25;;;;;;;;;;5084487;28;20036;-55
2021/12/18 02:10:16;;;;;;;10.00;4.35;;;;;;;;;;5069711;28;20028;-52
2021/12/18 02:20:49;;;;;;;6.90;3.95;;;;;;;;;;5084975;28;20085;-52
2021/12/18 02:23:14;;;;;;;5.10;3.60;;;;;;;;;;5081006;28;20487;-54
2021/12/18 02:25:40;;;;;;;8.02;4.63;;;;;;;;;;5084177;28;20027;-53
2021/12/18 02:28:14;;;;;;;5.88;4.00;;;;;;;;;;5083713;28;20056;-54
2021/12/18 02:30:39;;;;;;;7.50;4.47;;;;;;;;;;5081664;28;20020;-53
2021/12/18 02:33:04;;;;;;;7.28;4.05;;;;;;;;;;5082905;28;20475;-57
2021/12/18 02:35:35;;;;;;;7.72;3.75;;;;;;;;;;5083695;28;20461;-55
2021/12/18 02:38:09;;;;;;;5.88;4.00;;;;;;;;;;5084102;28;20119;-54
2021/12/18 02:43:12;;;;;;;7.30;3.70;;;;;;;;;;5084739;28;20010;-55
2021/12/18 02:45:37;;;;;;;5.82;3.70;;;;;;;;;;5081306;28;20027;-55
2021/12/18 02:48:03;;;;;;;6.35;4.05;;;;;;;;;;5082518;28;20118;-55
2021/12/18 02:50:28;;;;;;;6.13;3.67;;;;;;;;;;5083147;28;20119;-55
2021/12/18 02:52:54;;;;;;;5.85;3.55;;;;;;;;;;5082170;28;20115;-51
2021/12/18 02:55:19;;;;;;;7.03;4.07;;;;;;;;;;5082738;28;20028;-55
2021/12/18 02:57:44;;;;;;;7.63;3.95;;;;;;;;;;5084071;28;20443;-57
2021/12/18 03:00:10;;;;;;;7.07;4.40;;;;;;;;;;5082800;28;20107;-54
2021/12/18 03:02:42;;;;;;;6.47;4.00;;;;;;;;;;5083015;28;20363;-56
2021/12/18 03:05:10;;;;;;;8.27;4.15;;;;;;;;;;5084542;28;20034;-55
2021/12/18 03:07:36;;;;;;;6.82;4.13;;;;;;;;;;5084900;28;20036;-55
2021/12/18 03:25:33;;;;;;;7.35;4.03;;;;;;;;;;5078201;28;20024;-52
2021/12/18 03:28:00;;;;;;;5.05;3.78;;;;;;;;;;5082359;28;20174;-55
2021/12/18 03:30:26;;;;;;;5.97;3.72;;;;;;;;;;5079892;28;20032;-54
2021/12/18 03:32:58;;;;;;;5.93;3.38;;;;;;;;;;5081460;28;20024;-55
2021/12/18 03:35:23;;;;;;;7.00;3.78;;;;;;;;;;5081397;28;20036;-54
2021/12/18 03:37:48;;;;;;;5.50;3.80;;;;;;;;;;5084530;28;20036;-55
2021/12/18 03:40:17;;;;;;;5.72;3.35;;;;;;;;;;5087897;28;20034;-53
2021/12/18 03:42:43;;;;;;;7.43;4.03;;;;;;;;;;5082540;28;20032;-55
2021/12/18 03:45:10;;;;;;;6.28;4.07;;;;;;;;;;5084603;28;20429;-58
2021/12/18 03:47:37;;;;;;;6.40;3.67;;;;;;;;;;5065703;28;20108;-54
2021/12/18 03:50:02;;;;;;;9.65;3.80;;;;;;;;;;5086716;28;20662;-53
2021/12/18 03:52:28;;;;;;;7.00;3.58;;;;;;;;;;5083966;28;20032;-53
2021/12/18 03:54:53;;;;;;;5.43;3.63;;;;;;;;;;5085432;28;20541;-54
2021/12/18 03:57:19;;;;;;;9.63;3.90;;;;;;;;;;5084686;28;20030;-55
2021/12/18 03:59:44;;;;;;;6.95;4.18;;;;;;;;;;5082713;28;20068;-56
2021/12/18 04:02:10;;;;;;;8.43;3.55;;;;;;;;;;5083670;28;20621;-54
2021/12/18 04:04:35;;;;;;;5.80;3.40;;;;;;;;;;5084238;28;20119;-53
2021/12/18 04:07:01;;;;;;;5.90;3.40;;;;;;;;;;5085179;28;20036;-52
2021/12/18 04:09:28;;;;;;;6.88;3.90;;;;;;;;;;5084375;28;20081;-51
2021/12/18 04:11:54;;;;;;;4.68;3.17;;;;;;;;;;5084447;28;20119;-57
2021/12/18 04:14:20;;;;;;;6.28;3.50;;;;;;;;;;5083682;28;20499;-54
2021/12/18 04:16:45;;;;;;;5.95;3.67;;;;;;;;;;5084131;28;20077;-56
2021/12/18 04:19:11;;;;;;;7.53;3.45;;;;;;;;;;5082237;28;20051;-52
2021/12/18 04:21:36;;;;;;;7.35;4.53;;;;;;;;;;5084865;28;20119;-56
2021/12/18 04:24:03;;;;;;;9.63;3.97;;;;;;;;;;5083185;28;20077;-57
2021/12/18 04:26:30;;;;;;;6.30;3.75;;;;;;;;;;5084185;28;20036;-52
2021/12/18 04:28:55;;;;;;;6.28;3.70;;;;;;;;;;5084892;28;20043;-53
2021/12/18 04:31:21;;;;;;;5.97;3.55;;;;;;;;;;5084895;28;20036;-56
2021/12/18 04:33:46;;;;;;;6.78;3.92;;;;;;;;;;5082909;28;20532;-54
2021/12/18 04:36:11;;;;;;;4.93;3.30;;;;;;;;;;5084919;28;20024;-51
2021/12/18 04:38:37;;;;;;;6.93;3.97;;;;;;;;;;5083423;28;20392;-54
2021/12/18 04:41:04;;;;;;;6.38;4.20;;;;;;;;;;5082789;28;20074;-55
2021/12/18 04:43:30;;;;;;;8.98;3.63;;;;;;;;;;5065594;28;20043;-55
2021/12/18 04:45:56;;;;;;;6.90;4.07;;;;;;;;;;5083497;28;20028;-56
2021/12/18 04:48:21;;;;;;;5.05;3.60;;;;;;;;;;5083427;28;20035;-52
2021/12/18 04:50:46;;;;;;;6.80;4.00;;;;;;;;;;5086255;28;20024;-53
2021/12/18 04:53:12;;;;;;;5.25;3.47;;;;;;;;;;5066478;28;20150;-54
2021/12/18 04:55:37;;;;;;;7.07;4.15;;;;;;;;;;5086221;28;20477;-54
2021/12/18 04:58:03;;;;;;;5.47;3.70;;;;;;;;;;5065336;28;20054;-54
2021/12/18 05:00:37;;;;;;;6.65;3.83;;;;;;;;;;5084477;28;20103;-53
2021/12/18 05:03:05;;;;;;;5.90;3.72;;;;;;;;;;5086653;28;20355;-54
2021/12/18 05:05:32;;;;;;;7.20;3.85;;;;;;;;;;5085549;28;20105;-55
2021/12/18 05:07:57;;;;;;;7.93;4.15;;;;;;;;;;5086140;28;20755;-57
2021/12/18 05:10:23;;;;;;;8.45;3.85;;;;;;;;;;5085569;28;20045;-51
2021/12/18 05:12:48;;;;;;;6.45;4.13;;;;;;;;;;5083209;28;20043;-53
2021/12/18 05:15:14;;;;;;;7.82;4.20;;;;;;;;;;5081646;28;20020;-53
2021/12/18 05:17:39;;;;;;;7.30;4.15;;;;;;;;;;5088989;28;20020;-53
2021/12/18 05:20:05;;;;;;;8.73;4.82;;;;;;;;;;5087561;28;20031;-50
2021/12/18 05:22:31;;;;;;;8.88;4.35;;;;;;;;;;5085726;28;20436;-54
2021/12/18 05:24:56;;;;;;;9.00;5.20;;;;;;;;;;5087357;28;20069;-53
2021/12/18 05:27:22;;;;;;;8.02;4.70;;;;;;;;;;5085587;28;20178;-56
2021/12/18 05:29:47;;;;;;;9.57;5.07;;;;;;;;;;5088760;28;20035;-53
2021/12/18 05:32:12;;;;;;;8.80;4.80;;;;;;;;;;5085309;28;20551;-56
2021/12/18 05:34:38;;;;;;;8.20;5.30;;;;;;;;;;5088574;28;20452;-55
2021/12/18 05:37:32;;;;;;;9.32;5.70;;;;;;;;;;5090708;28;20034;-55
2021/12/18 05:39:58;;;;;;;10.30;5.40;;;;;;;;;;5085719;28;20039;-58
2021/12/18 05:42:24;;;;;;;11.23;5.70;;;;;;;;;;5087013;28;20032;-57
2021/12/18 05:44:50;;;;;;;11.98;5.95;;;;;;;;;;5085812;28;20625;-58
2021/12/18 05:47:15;;;;;;;9.15;5.93;;;;;;;;;;5086413;28;20440;-54
2021/12/18 05:49:40;;;;;;;10.65;6.22;;;;;;;;;;5087077;28;20020;-57
2021/12/18 05:52:07;;;;;;;11.15;6.47;;;;;;;;;;5087175;28;20035;-54
2021/12/18 05:54:34;;;;;;;11.02;7.03;;;;;;;;;;5088338;28;20028;-52
2021/12/18 05:57:01;;;;;;;14.05;7.00;;;;;;;;;;5086243;28;20042;-55
2021/12/18 05:59:27;;;;;;;11.48;6.82;;;;;;;;;;5089646;28;20383;-50
2021/12/18 06:01:52;;;;;;;13.40;7.93;;;;;;;;;;5088482;28;20024;-54
2021/12/18 06:04:17;;;;;;;13.40;7.50;;;;;;;;;;5087779;28;20124;-54
2021/12/18 06:06:43;;;;;;;11.10;6.80;;;;;;;;;;5088589;28;20893;-51
2021/12/18 06:09:10;;;;;;;11.75;7.13;;;;;;;;;;5086576;28;20107;-52
2021/12/18 06:11:38;;;;;;;12.90;7.15;;;;;;;;;;5090152;28;20066;-54
2021/12/18 06:14:04;;;;;;;12.82;7.13;;;;;;;;;;5086264;28;20448;-53
2021/12/18 06:16:29;;;;;;;11.82;7.18;;;;;;;;;;5087496;28;20035;-52
2021/12/18 06:18:54;;;;;;;13.82;6.55;;;;;;;;;;5084976;28;20876;-56
2021/12/18 06:21:20;;;;;;;13.15;7.88;;;;;;;;;;5085555;28;20096;-55
2021/12/18 06:23:47;;;;;;;12.05;6.72;;;;;;;;;;5084846;28;20165;-58
2021/12/18 06:26:14;;;;;;;11.48;6.88;;;;;;;;;;5086506;28;20024;-54
2021/12/18 06:28:40;;;;;;;12.07;7.03;;;;;;;;;;5084236;28;20028;-53
2021/12/18 06:31:05;;;;;;;11.70;6.88;;;;;;;;;;5087799;28;20511;-57
2021/12/18 06:33:31;;;;;;;10.57;6.32;;;;;;;;;;5087679;28;20054;-56
2021/12/18 06:35:58;;;;;;;13.52;7.45;;;;;;;;;;5087440;28;20036;-53
2021/12/18 06:38:23;;;;;;;11.73;7.10;;;;;;;;;;5087984;28;20084;-53
2021/12/18 06:40:49;;;;;;;12.30;7.25;;;;;;;;;;5086462;28;20694;-57
2021/12/18 06:43:14;;;;;;;14.63;7.70;;;;;;;;;;5088121;28;20028;-55
2021/12/18 06:45:40;;;;;;;10.82;6.78;;;;;;;;;;5088043;28;20202;-54
2021/12/18 06:48:05;;;;;;;11.27;6.82;;;;;;;;;;5087690;28;20081;-53
2021/12/18 06:50:32;;;;;;;12.40;6.70;;;;;;;;;;5087467;28;20093;-54
2021/12/18 06:52:58;;;;;;;12.35;6.90;;;;;;;;;;5086606;28;20805;-51
2021/12/18 06:55:23;;;;;;;11.10;7.25;;;;;;;;;;5086727;28;20035;-52
2021/12/18 06:57:48;;;;;;;11.07;7.13;;;;;;;;;;5085767;28;20028;-54
2021/12/18 07:00:16;;;;;;;11.98;7.40;;;;;;;;;;5085850;28;20032;-52
2021/12/18 07:02:42;;;;;;;13.38;7.10;;;;;;;;;;5085012;28;20042;-54
2021/12/18 07:05:09;;;;;;;13.43;7.43;;;;;;;;;;5084784;28;20391;-55
2021/12/18 07:07:35;;;;;;;11.52;7.15;;;;;;;;;;5087357;28;20047;-53
2021/12/18 07:10:00;;;;;;;13.07;7.38;;;;;;;;;;5085532;28;21962;-53
2021/12/18 07:12:26;;;;;;;11.68;7.25;;;;;;;;;;5086931;28;20019;-55
2021/12/18 07:14:52;;;;;;;11.95;7.22;;;;;;;;;;5085977;28;20038;-55
2021/12/18 07:17:17;;;;;;;12.38;6.90;;;;;;;;;;5084710;28;20039;-57
2021/12/18 07:19:43;;;;;;;12.50;7.22;;;;;;;;;;5085500;28;20032;-55
2021/12/18 07:22:08;;;;;;;13.70;7.60;;;;;;;;;;5087487;28;20047;-57
2021/12/18 07:24:33;;;;;;;13.93;7.50;;;;;;;;;;5087007;28;20023;-56
2021/12/18 07:26:59;;;;;;;12.32;7.35;;;;;;;;;;5086439;28;20121;-56
2021/12/18 07:29:24;;;;;;;14.60;7.40;;;;;;;;;;5086720;28;20161;-54
2021/12/18 07:31:51;;;;;;;15.75;7.63;;;;;;;;;;5083869;28;20016;-52
2021/12/18 07:34:17;;;;;;;15.93;7.90;;;;;;;;;;5086886;28;20035;-54
2021/12/18 07:36:43;;;;;;;13.90;7.63;;;;;;;;;;5083909;28;20036;-52
2021/12/18 07:39:09;;;;;;;14.57;7.28;;;;;;;;;;5088786;28;20695;-53
2021/12/18 07:41:34;;;;;;;13.00;7.15;;;;;;;;;;5085501;28;20050;-57
2021/12/18 07:43:59;;;;;;;15.23;7.82;;;;;;;;;;5084886;28;20031;-53
2021/12/18 07:46:25;;;;;;;14.52;7.30;;;;;;;;;;5083526;28;20046;-52
2021/12/18 07:48:50;;;;;;;14.63;8.02;;;;;;;;;;5083175;28;20038;-57
2021/12/18 07:51:16;;;;;;;15.43;7.85;;;;;;;;;;5084250;28;20096;-55
2021/12/18 07:53:41;;;;;;;16.55;8.18;;;;;;;;;;5085110;28;20383;-55
2021/12/18 07:56:09;;;;;;;15.30;7.95;;;;;;;;;;5085187;28;20442;-53
2021/12/18 07:58:35;;;;;;;13.50;7.47;;;;;;;;;;5084370;28;20114;-54
2021/12/18 08:01:00;;;;;;;14.05;7.82;;;;;;;;;;5085684;28;20106;-54
2021/12/18 08:03:26;;;;;;;14.25;7.50;;;;;;;;;;5083034;28;20023;-53
2021/12/18 08:05:51;;;;;;;17.67;8.07;;;;;;;;;;5085020;28;20035;-55
2021/12/18 08:08:17;;;;;;;23.02;11.05;;;;;;;;;;5084839;28;20040;-54
2021/12/18 08:10:42;;;;;;;15.57;8.10;;;;;;;;;;5085107;28;20040;-55
2021/12/18 08:13:07;;;;;;;16.63;7.97;;;;;;;;;;5083696;28;20028;-53
2021/12/18 08:15:33;;;;;;;13.98;7.65;;;;;;;;;;5084947;28;20020;-53
2021/12/18 08:17:58;;;;;;;12.60;6.93;;;;;;;;;;5084530;28;20020;-54
2021/12/18 08:20:26;;;;;;;12.05;7.32;;;;;;;;;;5084868;28;20118;-58
2021/12/18 08:22:51;;;;;;;14.77;8.10;;;;;;;;;;5084347;28;20039;-53
2021/12/18 08:25:17;;;;;;;15.77;8.85;;;;;;;;;;5085690;28;20024;-53
2021/12/18 08:27:42;;;;;;;13.88;7.50;;;;;;;;;;5082721;28;20036;-54
2021/12/18 08:30:08;;;;;;;13.18;7.53;;;;;;;;;;5085892;28;20020;-54
2021/12/18 08:32:34;;;;;;;10.43;6.47;;;;;;;;;;5083132;28;20105;-52
2021/12/18 08:34:59;;;;;;;11.40;6.40;;;;;;;;;;5082252;28;20486;-55
2021/12/18 08:37:24;;;;;;;12.93;7.32;;;;;;;;;;5085779;28;20024;-53
2021/12/18 08:39:50;;;;;;;12.57;7.40;;;;;;;;;;5065713;28;20169;-56
2021/12/18 08:42:16;;;;;;;12.35;6.80;;;;;;;;;;5083641;28;20502;-53
2021/12/18 08:44:41;;;;;;;12.07;6.50;;;;;;;;;;5084946;28;20670;-55
2021/12/18 08:47:07;;;;;;;10.88;5.78;;;;;;;;;;5088862;28;20039;-56
2021/12/18 08:49:33;;;;;;;12.23;5.97;;;;;;;;;;5086756;28;20035;-55
2021/12/18 08:51:58;;;;;;;12.23;6.43;;;;;;;;;;5084675;28;20024;-53
2021/12/18 08:54:24;;;;;;;10.82;5.28;;;;;;;;;;5083751;28;20032;-56
2021/12/18 08:56:49;;;;;;;9.98;5.82;;;;;;;;;;5067646;28;20053;-55
2021/12/18 08:59:15;;;;;;;9.80;6.20;;;;;;;;;;5084974;28;20039;-55
2021/12/18 09:01:40;;;;;;;12.20;6.00;;;;;;;;;;5081981;28;20158;-56
2021/12/18 09:04:05;;;;;;;11.40;6.05;;;;;;;;;;5084546;28;20055;-53
2021/12/18 09:06:31;;;;;;;12.52;6.13;;;;;;;;;;5081909;28;20036;-51
2021/12/18 09:08:56;;;;;;;13.98;6.43;;;;;;;;;;5086179;28;20035;-55
2021/12/18 09:11:22;;;;;;;9.52;5.68;;;;;;;;;;5084501;28;20028;-54
2021/12/18 09:13:48;;;;;;;9.82;5.88;;;;;;;;;;5084752;28;20181;-55
2021/12/18 09:16:14;;;;;;;11.30;5.45;;;;;;;;;;5083956;28;20028;-58
2021/12/18 09:18:39;;;;;;;11.80;5.97;;;;;;;;;;5083261;28;20041;-54
2021/12/18 09:21:05;;;;;;;11.50;5.75;;;;;;;;;;5086471;28;20045;-55
2021/12/18 09:23:30;;;;;;;12.80;5.82;;;;;;;;;;5082718;28;20024;-55
2021/12/18 09:25:56;;;;;;;10.65;5.45;;;;;;;;;;5085674;28;20421;-54
2021/12/18 09:28:21;;;;;;;10.38;6.35;;;;;;;;;;5083551;28;20028;-54
2021/12/18 09:30:47;;;;;;;15.55;6.72;;;;;;;;;;5084011;28;20475;-52
2021/12/18 09:33:15;;;;;;;12.65;6.50;;;;;;;;;;5083907;28;20032;-53
2021/12/18 09:35:42;;;;;;;14.30;7.72;;;;;;;;;;5081836;28;20024;-55
2021/12/18 09:38:08;;;;;;;15.50;7.70;;;;;;;;;;5084301;28;20376;-53
2021/12/18 09:40:34;;;;;;;15.38;7.97;;;;;;;;;;5083025;28;20173;-55
2021/12/18 09:43:00;;;;;;;17.17;8.13;;;;;;;;;;5085117;28;20122;-57
2021/12/18 09:45:26;;;;;;;20.42;9.10;;;;;;;;;;5083269;28;20028;-54
2021/12/18 09:47:52;;;;;;;20.05;9.10;;;;;;;;;;5085222;28;20028;-56
2021/12/18 09:50:21;;;;;;;19.25;8.82;;;;;;;;;;5084780;28;20039;-54
2021/12/18 09:52:46;;;;;;;20.42;9.65;;;;;;;;;;5081204;28;20121;-54
2021/12/18 09:55:12;;;;;;;17.40;8.73;;;;;;;;;;5083090;28;21044;-51
2021/12/18 09:57:38;;;;;;;16.90;8.77;;;;;;;;;;5082518;28;20042;-53
2021/12/18 10:00:08;;;;;;;19.30;9.45;;;;;;;;;;5067001;28;20036;-53
2021/12/18 10:02:33;;;;;;;16.42;8.77;;;;;;;;;;5081727;28;20028;-54
2021/12/18 10:04:58;;;;;;;18.60;9.95;;;;;;;;;;5088511;28;20027;-56
2021/12/18 10:07:26;;;;;;;20.80;10.48;;;;;;;;;;5086221;28;20035;-56
2021/12/18 10:09:54;;;;;;;25.33;9.20;;;;;;;;;;5072440;28;20043;-55
2021/12/18 10:12:19;;;;;;;21.50;10.13;;;;;;;;;;5086424;28;20074;-52
2021/12/18 10:14:59;;;;;;;18.15;9.15;;;;;;;;;;5087645;28;21696;-58
2021/12/18 10:17:25;;;;;;;17.15;9.05;;;;;;;;;;5071889;28;20468;-52
2021/12/18 10:19:52;;;;;;;19.20;9.23;;;;;;;;;;5087147;28;20204;-55
2021/12/18 10:22:18;;;;;;;17.80;9.20;;;;;;;;;;5090692;28;20788;-54
2021/12/18 10:24:58;;;;;;;22.40;9.45;;;;;;;;;;5086497;28;20028;-57
2021/12/18 10:27:26;;;;;;;13.77;8.35;;;;;;;;;;5085054;28;20066;-53
2021/12/18 10:29:54;;;;;;;14.18;8.60;;;;;;;;;;5086807;28;20039;-55
2021/12/18 10:32:23;;;;;;;17.10;9.15;;;;;;;;;;5086577;28;20109;-57
2021/12/18 10:34:56;;;;;;;18.95;10.07;;;;;;;;;;5084445;28;20039;-54
2021/12/18 10:37:26;;;;;;;;;;;;;;;;;;5086654;28;20082;-52
2021/12/18 10:39:58;;;;;;;13.48;7.32;;;;;;;;;;5085983;28;19919;-56
2021/12/18 10:42:34;;;;;;;14.32;7.68;;;;;;;;;;5084996;28;20036;-51
2021/12/18 10:45:20;;;;;;;13.98;7.20;;;;;;;;;;5087999;28;20407;-56
2021/12/18 10:48:02;;;;;;;13.00;7.45;;;;;;;;;;5088169;28;20120;-52
2021/12/18 10:50:42;;;;;;;11.68;6.80;;;;;;;;;;5088516;28;20048;-56
2021/12/18 10:53:29;;;;;;;14.75;7.07;;;;;;;;;;5086943;28;20027;-54
2021/12/18 10:55:58;;;;;;;13.80;7.07;;;;;;;;;;5087457;28;20020;-51
2021/12/18 10:58:31;;;;;;;10.70;6.43;;;;;;;;;;5087412;28;20032;-51
2021/12/18 11:01:07;;;;;;;13.13;7.57;;;;;;;;;;5088763;28;20032;-53
2021/12/18 11:03:44;;;;;;;13.48;7.05;;;;;;;;;;5085368;28;20073;-54
2021/12/18 11:06:17;;;;;;;12.30;7.07;;;;;;;;;;5086548;28;20085;-55
2021/12/18 11:09:04;;;;;;;12.23;6.70;;;;;;;;;;5085844;28;20089;-55
2021/12/18 11:14:13;;;;;;;16.02;8.00;;;;;;;;;;5083117;28;20032;-53
2021/12/18 11:16:41;;;;;;;15.93;7.82;;;;;;;;;;5085908;28;20115;-54
2021/12/18 11:19:13;;;;;;;14.30;7.57;;;;;;;;;;5088730;28;20020;-55
2021/12/18 11:21:42;;;;;;;13.40;7.03;;;;;;;;;;5086565;28;20039;-55
2021/12/18 11:24:09;;;;;;;13.05;7.47;;;;;;;;;;5069842;28;20031;-52
2021/12/18 11:26:56;;;;;;;13.23;7.95;;;;;;;;;;5085115;28;20028;-54
2021/12/18 11:29:40;;;;;;;13.65;7.43;;;;;;;;;;5085052;28;20252;-57
2021/12/18 11:32:07;;;;;;;20.52;7.72;;;;;;;;;;5083144;28;20383;-55
2021/12/18 11:34:33;;;;;;;14.50;8.00;;;;;;;;;;5085921;28;20062;-52
2021/12/18 11:36:59;;;;;;;16.08;8.05;;;;;;;;;;5085492;28;20332;-57
2021/12/18 11:39:29;;;;;;;13.73;7.88;;;;;;;;;;5086323;28;20036;-57
2021/12/18 11:41:55;;;;;;;12.93;7.35;;;;;;;;;;5086107;28;20028;-58
2021/12/18 11:44:26;;;;;;;14.40;7.80;;;;;;;;;;5086076;28;20643;-57
2021/12/18 11:46:52;;;;;;;16.85;8.50;;;;;;;;;;5085843;28;20066;-55
2021/12/18 11:49:19;;;;;;;12.65;7.43;;;;;;;;;;5085343;28;20063;-57
2021/12/18 11:52:03;;;;;;;12.90;7.53;;;;;;;;;;5084106;28;20032;-56
2021/12/18 11:54:56;;;;;;;14.32;7.63;;;;;;;;;;5066554;28;20032;-55
2021/12/18 11:57:42;;;;;;;14.57;7.67;;;;;;;;;;5086719;28;20313;-57
2021/12/18 12:00:22;;;;;;;14.90;7.82;;;;;;;;;;5089132;28;20297;-55
2021/12/18 12:02:54;;;;;;;14.48;8.02;;;;;;;;;;5084976;28;20076;-56
2021/12/18 12:05:32;;;;;;;15.25;8.65;;;;;;;;;;5087609;28;20028;-55
2021/12/18 12:08:21;;;;;;;15.35;8.25;;;;;;;;;;5068059;28;20060;-52
2021/12/18 12:11:31;;;;;;;15.63;8.43;;;;;;;;;;5085470;28;20040;-56
2021/12/18 12:14:19;;;;;;;12.85;7.93;;;;;;;;;;5082416;28;20440;-57
2021/12/18 12:16:44;;;;;;;14.50;7.53;;;;;;;;;;5083854;28;20124;-57
2021/12/18 12:19:12;;;;;;;14.82;7.65;;;;;;;;;;5082969;28;20036;-57
2021/12/18 12:21:41;;;;;;;18.85;7.90;;;;;;;;;;5087699;28;20032;-55
2021/12/18 12:24:08;;;;;;;13.27;7.80;;;;;;;;;;5084860;28;20051;-56
2021/12/18 12:26:34;;;;;;;15.65;7.97;;;;;;;;;;5084248;28;20737;-55
2021/12/18 12:29:00;;;;;;;17.48;7.65;;;;;;;;;;5083792;28;20023;-52
2021/12/18 12:31:25;;;;;;;13.85;8.07;;;;;;;;;;5082859;28;20024;-57
2021/12/18 12:33:51;;;;;;;13.40;7.22;;;;;;;;;;5083113;28;20031;-54
2021/12/18 12:36:25;;;;;;;13.65;7.72;;;;;;;;;;5085070;28;20024;-56
2021/12/18 12:39:03;;;;;;;15.50;7.85;;;;;;;;;;5082186;28;20043;-57
2021/12/18 12:41:37;;;;;;;15.13;7.93;;;;;;;;;;5083427;28;20031;-56
2021/12/18 12:44:26;;;;;;;14.98;7.82;;;;;;;;;;5086763;28;20445;-55
2021/12/18 12:47:22;;;;;;;13.18;7.10;;;;;;;;;;5073660;28;20044;-56
2021/12/18 12:49:50;;;;;;;15.20;7.63;;;;;;;;;;5084633;28;20050;-58
2021/12/18 12:52:21;;;;;;;15.30;7.65;;;;;;;;;;5085474;28;20048;-55
2021/12/18 12:55:06;;;;;;;14.45;7.78;;;;;;;;;;5083297;28;20029;-52
2021/12/18 12:57:38;;;;;;;14.48;7.70;;;;;;;;;;5082545;28;20469;-55
2021/12/18 13:00:03;;;;;;;14.82;7.78;;;;;;;;;;5084745;28;20038;-54
2021/12/18 13:02:30;;;;;;;14.05;7.95;;;;;;;;;;5083070;28;20035;-55
2021/12/18 13:05:01;;;;;;;15.52;8.30;;;;;;;;;;5086393;28;20069;-54
2021/12/18 13:07:26;;;;;;;15.40;8.25;;;;;;;;;;5085780;28;20027;-56
2021/12/18 13:09:51;;;;;;;14.02;7.50;;;;;;;;;;5083769;28;20605;-55
2021/12/18 13:12:17;;;;;;;13.43;7.70;;;;;;;;;;5085091;28;20104;-53
2021/12/18 13:14:44;;;;;;;16.48;7.75;;;;;;;;;;5084073;28;20032;-53
2021/12/18 13:17:35;;;;;;;15.95;7.93;;;;;;;;;;5100150;28;20039;-52
2021/12/18 13:20:05;;;;;;;16.50;7.90;;;;;;;;;;5079002;28;20028;-56
2021/12/18 13:22:33;;;;;;;14.02;7.95;;;;;;;;;;5084363;28;20039;-54
2021/12/18 13:25:11;;;;;;;14.55;7.30;;;;;;;;;;5084016;28;20060;-54
2021/12/18 13:27:40;;;;;;;13.45;7.43;;;;;;;;;;5084628;28;20512;-56
2021/12/18 13:30:09;;;;;;;14.23;7.15;;;;;;;;;;5081679;28;20028;-58
2021/12/18 13:32:34;;;;;;;14.82;7.60;;;;;;;;;;5083298;28;20122;-57
2021/12/18 13:35:00;;;;;;;14.77;8.00;;;;;;;;;;5083484;28;20024;-54
2021/12/18 13:37:25;;;;;;;13.15;7.55;;;;;;;;;;5084039;28;20028;-56
2021/12/18 13:39:53;;;;;;;14.35;7.15;;;;;;;;;;5085925;28;20114;-58
2021/12/18 13:42:23;;;;;;;15.48;7.68;;;;;;;;;;5086841;28;20637;-57
2021/12/18 13:44:55;;;;;;;13.93;7.65;;;;;;;;;;5089099;28;20093;-55
2021/12/18 13:47:41;;;;;;;13.57;7.20;;;;;;;;;;5085628;28;20058;-57
2021/12/18 13:50:14;;;;;;;14.10;7.28;;;;;;;;;;5086495;28;20063;-56
2021/12/18 13:52:48;;;;;;;14.20;7.60;;;;;;;;;;5088462;28;20027;-56
2021/12/18 13:55:22;;;;;;;;;;;;;;;;;;5088557;28;20452;-50
2021/12/18 13:58:18;;;;;;;14.13;7.25;;;;;;;;;;5088671;28;19920;-56
2021/12/18 14:01:02;;;;;;;13.05;7.47;;;;;;;;;;5076360;28;20039;-58
2021/12/18 14:03:48;;;;;;;12.77;7.72;;;;;;;;;;5090531;28;20107;-56
2021/12/18 14:06:19;;;;;;;15.38;7.28;;;;;;;;;;5084109;28;20024;-56
2021/12/18 14:09:04;;;;;;;14.77;7.72;;;;;;;;;;5070525;28;20429;-53
2021/12/18 14:11:37;;;;;;;13.73;7.60;;;;;;;;;;5084620;28;20036;-54
2021/12/18 14:14:06;;;;;;;17.40;7.82;;;;;;;;;;5087638;28;20028;-53
2021/12/18 14:16:32;;;;;;;12.15;7.63;;;;;;;;;;5089594;28;20058;-51
2021/12/18 14:19:07;;;;;;;16.48;8.55;;;;;;;;;;5086829;28;20027;-57
2021/12/18 14:21:37;;;;;;;14.55;7.28;;;;;;;;;;5084721;28;20031;-53
2021/12/18 14:24:03;;;;;;;16.50;7.93;;;;;;;;;;5085814;28;20036;-55
2021/12/18 14:26:30;;;;;;;15.02;7.97;;;;;;;;;;5087241;28;20104;-58
2021/12/18 14:29:04;;;;;;;13.20;7.43;;;;;;;;;;5086416;28;20058;-52
2021/12/18 14:31:38;;;;;;;15.45;7.97;;;;;;;;;;5085950;28;20020;-55
2021/12/18 14:34:12;;;;;;;14.15;7.85;;;;;;;;;;5085785;28;20451;-53
2021/12/18 14:37:03;;;;;;;13.15;7.38;;;;;;;;;;5064544;28;20035;-54
2021/12/18 14:39:42;;;;;;;14.70;7.60;;;;;;;;;;1788820;28;10022879;-53
2021/12/18 14:42:12;;;;;;;18.58;7.32;;;;;;;;;;3998790;28;10001015;-57
2021/12/18 14:45:20;;;;;;;13.43;7.60;;;;;;;;;;5045262;28;20036;-50
2021/12/18 14:47:48;;;;;;;14.38;7.80;;;;;;;;;;4998265;28;20196;-55
2021/12/18 14:50:25;;;;;;;15.40;6.88;;;;;;;;;;4998235;28;20152;-57
2021/12/18 14:52:50;;;;;;;13.38;7.32;;;;;;;;;;5018659;28;20132;-56
2021/12/18 14:55:22;;;;;;;15.02;6.72;;;;;;;;;;5040028;28;20120;-55
2021/12/18 14:57:57;;;;;;;12.48;7.18;;;;;;;;;;5043672;28;20103;-55
2021/12/18 15:00:31;;;;;;;11.85;6.50;;;;;;;;;;5042988;28;20025;-57
2021/12/18 15:03:03;;;;;;;15.07;6.07;;;;;;;;;;5044436;28;20037;-53
2021/12/18 15:05:49;;;;;;;10.27;6.57;;;;;;;;;;5044546;28;20126;-52
2021/12/18 15:08:17;;;;;;;11.90;6.22;;;;;;;;;;5044433;28;20077;-56
2021/12/18 15:10:47;;;;;;;11.20;6.13;;;;;;;;;;5043244;28;20053;-55
2021/12/18 15:13:17;;;;;;;11.57;6.15;;;;;;;;;;5045089;28;20484;-55
2021/12/18 15:15:46;;;;;;;10.73;6.03;;;;;;;;;;5044655;28;20013;-57
2021/12/18 15:18:12;;;;;;;14.70;6.57;;;;;;;;;;5042767;28;20045;-52
2021/12/18 15:20:37;;;;;;;10.50;5.90;;;;;;;;;;5041625;28;20052;-57
2021/12/18 15:23:03;;;;;;;9.32;5.18;;;;;;;;;;5043169;28;20025;-53
2021/12/18 15:25:28;;;;;;;11.93;5.80;;;;;;;;;;5041219;28;20040;-55
2021/12/18 15:27:55;;;;;;;10.98;5.38;;;;;;;;;;5041749;28;20033;-55
2021/12/18 15:30:21;;;;;;;10.65;5.25;;;;;;;;;;5043557;28;20036;-54
2021/12/18 15:32:47;;;;;;;9.93;5.18;;;;;;;;;;5046180;28;21143;-57
2021/12/18 15:35:13;;;;;;;10.38;5.70;;;;;;;;;;5042903;28;20025;-55
2021/12/18 15:37:38;;;;;;;9.85;5.38;;;;;;;;;;5026264;28;20037;-56
2021/12/18 15:40:04;;;;;;;9.40;5.05;;;;;;;;;;5043434;28;20072;-53